createdAt,value
2022-10-14T04:04:51.385Z,100.00
2022-10-14T04:07:54.099Z,100.00
2022-10-14T04:10:56.985Z,100.00
2022-10-14T04:14:00.691Z,100.00
2022-10-14T04:17:03.933Z,100.00
2022-10-14T04:20:06.928Z,100.00
2022-10-14T04:23:09.709Z,100.00
2022-10-14T04:26:13.126Z,100.00
2022-10-14T04:29:15.430Z,100.00
2022-10-14T04:32:18.380Z,100.00
2022-10-14T04:35:20.798Z,100.00
2022-10-14T04:38:23.510Z,100.00
2022-10-14T04:41:25.878Z,100.00
2022-10-14T04:44:28.596Z,100.00
2022-10-14T04:47:30.668Z,100.00
2022-10-14T04:50:33.652Z,100.00
2022-10-14T04:53:46.931Z,100.00
2022-10-14T04:56:51.121Z,100.00
2022-10-14T04:59:53.497Z,100.00
2022-10-14T05:02:56.170Z,100.00
2022-10-14T05:06:00.665Z,100.00
2022-10-14T05:09:05.025Z,100.00
2022-10-14T05:12:07.488Z,100.00
2022-10-14T05:15:11.724Z,100.00
2022-10-14T05:18:14.260Z,100.00
2022-10-14T05:21:18.205Z,100.00
2022-10-14T05:24:21.351Z,100.00
2022-10-14T05:27:23.987Z,100.00
2022-10-14T05:30:30.787Z,100.00
2022-10-14T05:33:37.040Z,100.00
2022-10-14T05:36:39.686Z,100.00
2022-10-14T05:39:42.086Z,100.00
2022-10-14T05:42:44.174Z,100.00
2022-10-14T05:45:47.983Z,100.00
2022-10-14T05:48:50.301Z,100.00
2022-10-14T05:51:52.631Z,100.00
2022-10-14T05:54:54.960Z,100.00
2022-10-14T05:57:58.493Z,100.00
2022-10-14T06:01:04.186Z,100.00
2022-10-14T06:04:08.044Z,100.00
2022-10-14T06:07:10.425Z,100.00
2022-10-14T06:10:13.485Z,100.00
2022-10-14T06:13:15.793Z,100.00
2022-10-14T06:16:18.997Z,100.00
2022-10-14T06:19:21.177Z,100.00
2022-10-14T06:22:23.821Z,100.00
2022-10-14T06:25:26.922Z,100.00
2022-10-14T06:28:29.265Z,100.00
2022-10-14T06:31:32.512Z,99.75
2022-10-14T06:34:35.298Z,99.04
2022-10-14T06:37:37.592Z,98.09
2022-10-14T06:40:39.890Z,97.51
2022-10-14T06:43:41.938Z,98.34
2022-10-14T06:46:44.250Z,98.88
2022-10-14T06:49:46.278Z,99.39
2022-10-14T06:52:48.738Z,98.76
2022-10-14T06:55:57.653Z,100.00
2022-10-14T06:59:01.110Z,98.57
2022-10-14T07:02:03.171Z,98.93
2022-10-14T07:05:06.113Z,97.64
2022-10-14T07:08:10.222Z,97.05
2022-10-14T07:11:16.556Z,97.24
2022-10-14T07:14:18.596Z,96.33
2022-10-14T07:17:21.275Z,92.60
2022-10-14T07:20:23.574Z,91.44
2022-10-14T07:23:25.921Z,91.03
2022-10-14T07:26:31.290Z,91.36
2022-10-14T07:29:33.623Z,91.11
2022-10-14T07:32:36.986Z,87.96
2022-10-14T07:35:39.316Z,87.74
2022-10-14T07:38:42.173Z,86.84
2022-10-14T07:41:44.517Z,85.17
2022-10-14T07:44:46.590Z,86.68
2022-10-14T07:47:51.205Z,85.51
2022-10-14T07:50:54.306Z,86.13
2022-10-14T07:53:59.377Z,86.02
2022-10-14T07:57:01.417Z,86.04
2022-10-14T08:00:04.058Z,84.20
2022-10-14T08:03:14.259Z,83.17
2022-10-14T08:06:16.633Z,80.03
2022-10-14T08:09:19.950Z,79.86
2022-10-14T08:12:22.691Z,80.24
2022-10-14T08:15:28.494Z,80.34
2022-10-14T08:18:30.893Z,79.01
2022-10-14T08:21:33.189Z,78.18
2022-10-14T08:24:35.470Z,77.40
2022-10-14T08:27:37.637Z,77.50
2022-10-14T08:30:40.006Z,77.67
2022-10-14T08:33:42.092Z,75.84
2022-10-14T08:36:44.488Z,73.39
2022-10-14T08:39:46.515Z,74.49
2022-10-14T08:42:57.453Z,76.24
2022-10-14T08:46:13.150Z,72.26
2022-10-14T08:49:40.697Z,73.42
2022-10-14T08:52:50.464Z,73.90
2022-10-14T08:55:56.607Z,74.42
2022-10-14T08:59:05.284Z,74.71
2022-10-14T09:02:34.509Z,73.34
2022-10-14T09:05:39.122Z,74.85
2022-10-14T09:08:44.962Z,74.41
2022-10-14T09:11:53.198Z,75.01
2022-10-14T09:15:20.214Z,75.44
2022-10-14T09:18:45.422Z,74.16
2022-10-14T09:21:54.091Z,73.84
2022-10-14T09:24:58.459Z,73.75
2022-10-14T09:28:00.933Z,73.02
2022-10-14T09:31:03.919Z,72.73
2022-10-14T09:34:09.058Z,73.33
2022-10-14T09:37:30.916Z,72.70
2022-10-14T09:40:41.181Z,72.41
2022-10-14T09:44:21.122Z,73.08
2022-10-14T09:47:23.962Z,72.74
2022-10-14T09:50:53.140Z,72.82
2022-10-14T09:54:02.217Z,72.59
2022-10-14T09:57:07.970Z,72.68
2022-10-14T10:00:25.917Z,72.40
2022-10-14T10:03:35.475Z,72.72
2022-10-14T10:06:51.533Z,73.33
2022-10-14T10:09:56.086Z,72.12
2022-10-14T10:12:58.714Z,70.18
2022-10-14T10:16:04.692Z,70.22
2022-10-14T10:19:27.532Z,71.45
2022-10-14T10:22:34.080Z,72.21
2022-10-14T10:25:36.170Z,72.64
2022-10-14T10:28:45.504Z,72.86
2022-10-14T10:32:19.193Z,72.10
2022-10-14T10:36:03.993Z,71.95
2022-10-14T10:39:33.943Z,72.03
2022-10-14T10:42:54.785Z,70.14
2022-10-14T10:46:04.658Z,69.98
2022-10-14T10:49:16.519Z,70.57
2022-10-14T10:52:45.060Z,69.13
2022-10-14T10:56:07.576Z,69.96
2022-10-14T10:59:49.256Z,70.42
2022-10-14T11:02:55.658Z,70.17
2022-10-14T11:06:10.083Z,70.70
2022-10-14T11:10:02.860Z,69.37
2022-10-14T11:13:34.868Z,68.25
2022-10-14T11:16:45.960Z,69.19
2022-10-14T11:20:12.202Z,69.16
2022-10-14T11:23:34.815Z,67.76
2022-10-14T11:26:54.063Z,67.72
2022-10-14T11:30:08.947Z,68.11
2022-10-14T11:33:46.736Z,67.84
2022-10-14T11:37:01.225Z,67.59
2022-10-14T11:40:15.435Z,67.98
2022-10-14T11:43:36.578Z,67.34
2022-10-14T11:46:46.397Z,66.06
2022-10-14T11:50:03.186Z,66.10
2022-10-14T11:53:20.127Z,65.57
2022-10-14T11:56:31.693Z,65.54
2022-10-14T11:59:52.894Z,65.73
2022-10-14T12:03:04.880Z,66.39
2022-10-14T12:06:16.378Z,64.51
2022-10-14T12:09:44.222Z,64.30
2022-10-14T12:12:47.081Z,64.96
2022-10-14T12:15:52.644Z,65.23
2022-10-14T12:18:58.394Z,64.88
2022-10-14T12:22:18.904Z,65.39
2022-10-14T12:25:24.898Z,65.86
2022-10-14T12:28:27.310Z,65.77
2022-10-14T12:31:38.254Z,66.51
2022-10-14T12:34:42.484Z,67.44
2022-10-14T12:37:50.808Z,67.94
2022-10-14T12:44:44.632Z,69.23
2022-10-14T12:47:47.215Z,68.36
2022-10-14T12:51:16.928Z,67.70
2022-10-14T12:54:19.299Z,66.10
2022-10-14T12:57:30.732Z,66.25
2022-10-14T13:00:38.693Z,66.08
2022-10-14T13:03:52.408Z,65.37
2022-10-14T13:07:44.007Z,65.47
2022-10-14T13:10:59.614Z,65.81
2022-10-14T13:14:02.207Z,65.24
2022-10-14T13:17:26.813Z,64.94
2022-10-14T13:20:35.205Z,64.75
2022-10-14T13:23:52.693Z,64.79
2022-10-14T13:27:02.910Z,66.14
2022-10-14T13:30:11.310Z,65.13
2022-10-14T13:33:32.519Z,66.47
2022-10-14T13:36:42.345Z,66.55
2022-10-14T13:39:45.469Z,67.57
2022-10-14T13:43:15.975Z,68.58
2022-10-14T13:46:27.960Z,67.89
2022-10-14T13:49:36.511Z,68.36
2022-10-14T13:52:39.522Z,69.64
2022-10-14T13:55:54.591Z,70.65
2022-10-14T13:58:58.205Z,70.60
2022-10-14T14:02:03.618Z,69.18
2022-10-14T14:05:07.072Z,67.97
2022-10-14T14:08:40.542Z,67.83
2022-10-14T14:11:46.643Z,68.67
2022-10-14T14:14:49.482Z,69.28
2022-10-14T14:17:52.594Z,69.17
2022-10-14T14:20:59.168Z,69.01
2022-10-14T14:24:02.262Z,68.69
2022-10-14T14:27:04.494Z,68.78
2022-10-14T14:30:20.582Z,69.91
2022-10-14T14:33:29.903Z,70.52
2022-10-14T14:36:46.933Z,70.64
2022-10-14T14:40:03.436Z,70.55
2022-10-14T14:43:06.073Z,70.47
2022-10-14T14:46:19.524Z,70.26
2022-10-14T14:49:29.136Z,70.27
2022-10-14T14:52:32.207Z,70.32
2022-10-14T14:55:43.855Z,71.35
2022-10-14T14:58:52.825Z,73.37
